Terminal Aerodrome Forecast
Issued by NWS

Home | Current Version | Previous Version | Text Only | Print | Product List | Glossary Off
Versions: 1 2 3 4 5 6 7 8 9 10 11 12 13 14 15 16 17 18 19 20 21 22 23 24 25 26

000
FTUS43 KLOT 152032 AAA
TAFORD
TAF AMD
KORD 152032Z 1521/1624 26013G20KT P6SM BKN028 OVC040
     FM152300 24009KT P6SM SCT025 OVC040
     FM160100 23007KT P6SM -SHSN SCT025 OVC040
     FM160400 20007KT P6SM SCT030 BKN080
     FM162100 16007KT P6SM FEW150=

USA.gov is the U.S. government's official web portal to all federal, state and local government web resources and services.